sensor_id;sensor_type;location;lat;lon;timestamp;P1;durP1;ratioP1;P2;durP2;ratioP2
23506;SDS011;11930;53.076;18.250;2024-03-08T00:02:14;69.57;;;26.53;;
23506;SDS011;11930;53.076;18.250;2024-03-08T00:04:40;69.10;;;25.87;;
23506;SDS011;11930;53.076;18.250;2024-03-08T00:07:08;67.03;;;26.03;;
23506;SDS011;11930;53.076;18.250;2024-03-08T00:09:34;69.80;;;26.53;;
23506;SDS011;11930;53.076;18.250;2024-03-08T00:12:00;62.63;;;25.70;;
23506;SDS011;11930;53.076;18.250;2024-03-08T00:14:26;58.73;;;22.57;;
23506;SDS011;11930;53.076;18.250;2024-03-08T00:16:53;71.73;;;25.80;;
23506;SDS011;11930;53.076;18.250;2024-03-08T00:19:19;58.93;;;23.80;;
23506;SDS011;11930;53.076;18.250;2024-03-08T00:21:46;61.57;;;24.73;;
23506;SDS011;11930;53.076;18.250;2024-03-08T00:24:12;62.03;;;24.17;;
23506;SDS011;11930;53.076;18.250;2024-03-08T00:26:38;55.87;;;22.03;;
23506;SDS011;11930;53.076;18.250;2024-03-08T00:29:04;55.07;;;23.53;;
23506;SDS011;11930;53.076;18.250;2024-03-08T00:31:30;61.23;;;23.83;;
23506;SDS011;11930;53.076;18.250;2024-03-08T00:33:57;53.30;;;23.60;;
23506;SDS011;11930;53.076;18.250;2024-03-08T00:36:23;58.47;;;23.07;;
23506;SDS011;11930;53.076;18.250;2024-03-08T00:38:50;58.70;;;23.63;;
23506;SDS011;11930;53.076;18.250;2024-03-08T00:41:16;52.60;;;23.17;;
23506;SDS011;11930;53.076;18.250;2024-03-08T00:43:42;58.87;;;23.00;;
23506;SDS011;11930;53.076;18.250;2024-03-08T00:46:09;52.73;;;22.63;;
23506;SDS011;11930;53.076;18.250;2024-03-08T00:48:35;48.17;;;21.50;;
23506;SDS011;11930;53.076;18.250;2024-03-08T00:51:02;52.77;;;21.73;;
23506;SDS011;11930;53.076;18.250;2024-03-08T00:53:28;55.20;;;23.10;;
23506;SDS011;11930;53.076;18.250;2024-03-08T00:55:54;52.90;;;20.50;;
23506;SDS011;11930;53.076;18.250;2024-03-08T00:58:21;55.97;;;21.43;;
23506;SDS011;11930;53.076;18.250;2024-03-08T01:00:49;55.53;;;22.53;;
23506;SDS011;11930;53.076;18.250;2024-03-08T01:03:15;60.93;;;23.83;;
23506;SDS011;11930;53.076;18.250;2024-03-08T01:05:42;60.97;;;24.57;;
23506;SDS011;11930;53.076;18.250;2024-03-08T01:08:08;65.23;;;24.63;;
23506;SDS011;11930;53.076;18.250;2024-03-08T01:10:37;67.53;;;27.83;;
23506;SDS011;11930;53.076;18.250;2024-03-08T01:13:03;64.40;;;25.77;;
23506;SDS011;11930;53.076;18.250;2024-03-08T01:15:29;67.27;;;27.70;;
23506;SDS011;11930;53.076;18.250;2024-03-08T01:17:55;68.30;;;27.17;;
23506;SDS011;11930;53.076;18.250;2024-03-08T01:20:22;70.17;;;28.83;;
23506;SDS011;11930;53.076;18.250;2024-03-08T01:22:48;62.83;;;26.90;;
23506;SDS011;11930;53.076;18.250;2024-03-08T01:25:14;71.30;;;27.20;;
23506;SDS011;11930;53.076;18.250;2024-03-08T01:27:40;61.47;;;25.93;;
23506;SDS011;11930;53.076;18.250;2024-03-08T01:30:07;62.87;;;25.50;;
23506;SDS011;11930;53.076;18.250;2024-03-08T01:32:34;68.50;;;26.17;;
23506;SDS011;11930;53.076;18.250;2024-03-08T01:35:01;62.40;;;24.17;;
23506;SDS011;11930;53.076;18.250;2024-03-08T01:37:28;59.07;;;24.20;;
23506;SDS011;11930;53.076;18.250;2024-03-08T01:39:55;56.27;;;23.47;;
23506;SDS011;11930;53.076;18.250;2024-03-08T01:42:21;50.57;;;22.77;;
23506;SDS011;11930;53.076;18.250;2024-03-08T01:44:50;60.63;;;23.27;;
23506;SDS011;11930;53.076;18.250;2024-03-08T01:47:17;51.80;;;22.83;;
23506;SDS011;11930;53.076;18.250;2024-03-08T01:49:43;57.43;;;22.47;;
23506;SDS011;11930;53.076;18.250;2024-03-08T01:52:10;50.13;;;21.53;;
23506;SDS011;11930;53.076;18.250;2024-03-08T01:54:37;48.60;;;20.30;;
23506;SDS011;11930;53.076;18.250;2024-03-08T01:57:03;49.73;;;20.57;;
23506;SDS011;11930;53.076;18.250;2024-03-08T01:59:30;49.40;;;19.77;;
23506;SDS011;11930;53.076;18.250;2024-03-08T02:01:56;45.17;;;19.20;;
23506;SDS011;11930;53.076;18.250;2024-03-08T02:04:28;46.13;;;18.43;;
23506;SDS011;11930;53.076;18.250;2024-03-08T02:06:56;47.03;;;19.17;;
23506;SDS011;11930;53.076;18.250;2024-03-08T02:09:24;47.37;;;18.87;;
23506;SDS011;11930;53.076;18.250;2024-03-08T02:11:53;42.40;;;17.57;;
23506;SDS011;11930;53.076;18.250;2024-03-08T02:14:20;42.47;;;17.60;;
23506;SDS011;11930;53.076;18.250;2024-03-08T02:16:46;44.27;;;18.07;;
23506;SDS011;11930;53.076;18.250;2024-03-08T02:19:12;42.50;;;16.43;;
23506;SDS011;11930;53.076;18.250;2024-03-08T02:21:38;43.63;;;17.70;;
23506;SDS011;11930;53.076;18.250;2024-03-08T02:24:05;43.50;;;17.67;;
23506;SDS011;11930;53.076;18.250;2024-03-08T02:26:31;42.97;;;17.40;;
23506;SDS011;11930;53.076;18.250;2024-03-08T02:28:58;42.33;;;17.57;;
23506;SDS011;11930;53.076;18.250;2024-03-08T02:31:24;39.00;;;16.77;;
23506;SDS011;11930;53.076;18.250;2024-03-08T02:33:50;38.80;;;16.93;;
23506;SDS011;11930;53.076;18.250;2024-03-08T02:36:16;41.13;;;17.13;;
23506;SDS011;11930;53.076;18.250;2024-03-08T02:38:42;39.53;;;17.27;;
23506;SDS011;11930;53.076;18.250;2024-03-08T02:41:08;36.97;;;16.07;;
23506;SDS011;11930;53.076;18.250;2024-03-08T02:43:36;36.83;;;15.67;;
23506;SDS011;11930;53.076;18.250;2024-03-08T02:46:02;34.50;;;14.97;;
23506;SDS011;11930;53.076;18.250;2024-03-08T02:48:28;33.47;;;14.93;;
23506;SDS011;11930;53.076;18.250;2024-03-08T02:50:54;35.50;;;15.97;;
23506;SDS011;11930;53.076;18.250;2024-03-08T02:53:20;35.83;;;15.30;;
23506;SDS011;11930;53.076;18.250;2024-03-08T02:55:47;36.13;;;15.53;;
23506;SDS011;11930;53.076;18.250;2024-03-08T02:58:13;34.87;;;14.57;;
23506;SDS011;11930;53.076;18.250;2024-03-08T03:00:40;35.23;;;14.60;;
23506;SDS011;11930;53.076;18.250;2024-03-08T03:03:07;32.70;;;14.37;;
23506;SDS011;11930;53.076;18.250;2024-03-08T03:05:33;40.13;;;15.80;;
23506;SDS011;11930;53.076;18.250;2024-03-08T03:07:59;35.67;;;14.97;;
23506;SDS011;11930;53.076;18.250;2024-03-08T03:10:26;35.80;;;15.77;;
23506;SDS011;11930;53.076;18.250;2024-03-08T03:12:52;40.70;;;15.43;;
23506;SDS011;11930;53.076;18.250;2024-03-08T03:15:18;34.23;;;15.80;;
23506;SDS011;11930;53.076;18.250;2024-03-08T03:17:48;36.77;;;15.53;;
23506;SDS011;11930;53.076;18.250;2024-03-08T03:20:16;38.80;;;16.27;;
23506;SDS011;11930;53.076;18.250;2024-03-08T03:22:49;39.47;;;16.43;;
23506;SDS011;11930;53.076;18.250;2024-03-08T03:25:20;42.87;;;17.23;;
23506;SDS011;11930;53.076;18.250;2024-03-08T03:27:51;43.57;;;17.63;;
23506;SDS011;11930;53.076;18.250;2024-03-08T03:30:18;34.63;;;16.43;;
23506;SDS011;11930;53.076;18.250;2024-03-08T03:32:48;40.00;;;16.63;;
23506;SDS011;11930;53.076;18.250;2024-03-08T03:35:19;35.27;;;15.03;;
23506;SDS011;11930;53.076;18.250;2024-03-08T03:37:46;36.20;;;15.00;;
23506;SDS011;11930;53.076;18.250;2024-03-08T03:40:31;34.87;;;14.20;;
23506;SDS011;11930;53.076;18.250;2024-03-08T03:42:58;34.30;;;14.80;;
23506;SDS011;11930;53.076;18.250;2024-03-08T03:45:24;29.73;;;13.33;;
23506;SDS011;11930;53.076;18.250;2024-03-08T03:47:51;27.67;;;12.67;;
23506;SDS011;11930;53.076;18.250;2024-03-08T03:50:17;33.83;;;13.30;;
23506;SDS011;11930;53.076;18.250;2024-03-08T03:52:45;30.60;;;13.73;;
23506;SDS011;11930;53.076;18.250;2024-03-08T03:55:12;25.57;;;12.37;;
23506;SDS011;11930;53.076;18.250;2024-03-08T03:57:39;35.80;;;13.80;;
23506;SDS011;11930;53.076;18.250;2024-03-08T04:00:06;30.27;;;12.80;;
23506;SDS011;11930;53.076;18.250;2024-03-08T04:02:40;30.47;;;12.30;;
23506;SDS011;11930;53.076;18.250;2024-03-08T04:05:07;31.90;;;13.30;;
23506;SDS011;11930;53.076;18.250;2024-03-08T04:07:35;34.07;;;13.27;;
23506;SDS011;11930;53.076;18.250;2024-03-08T04:10:05;35.20;;;12.80;;
23506;SDS011;11930;53.076;18.250;2024-03-08T04:12:33;30.40;;;12.90;;
23506;SDS011;11930;53.076;18.250;2024-03-08T04:14:59;26.37;;;12.13;;
23506;SDS011;11930;53.076;18.250;2024-03-08T04:17:26;29.20;;;13.43;;
23506;SDS011;11930;53.076;18.250;2024-03-08T04:19:52;33.23;;;13.60;;
23506;SDS011;11930;53.076;18.250;2024-03-08T04:22:19;30.57;;;13.60;;
23506;SDS011;11930;53.076;18.250;2024-03-08T04:24:45;33.17;;;13.40;;
23506;SDS011;11930;53.076;18.250;2024-03-08T04:27:12;35.33;;;14.50;;
23506;SDS011;11930;53.076;18.250;2024-03-08T04:29:39;33.60;;;13.70;;
23506;SDS011;11930;53.076;18.250;2024-03-08T04:32:07;30.53;;;13.93;;
23506;SDS011;11930;53.076;18.250;2024-03-08T04:34:34;32.47;;;13.80;;
23506;SDS011;11930;53.076;18.250;2024-03-08T04:37:01;35.43;;;13.80;;
23506;SDS011;11930;53.076;18.250;2024-03-08T04:39:27;27.90;;;12.83;;
23506;SDS011;11930;53.076;18.250;2024-03-08T04:41:58;31.73;;;12.47;;
23506;SDS011;11930;53.076;18.250;2024-03-08T04:44:26;33.33;;;13.33;;
23506;SDS011;11930;53.076;18.250;2024-03-08T04:46:52;32.00;;;13.07;;
23506;SDS011;11930;53.076;18.250;2024-03-08T04:49:18;40.03;;;14.30;;
23506;SDS011;11930;53.076;18.250;2024-03-08T04:51:44;32.93;;;13.17;;
23506;SDS011;11930;53.076;18.250;2024-03-08T04:54:11;27.30;;;12.27;;
23506;SDS011;11930;53.076;18.250;2024-03-08T04:56:37;33.37;;;11.97;;
23506;SDS011;11930;53.076;18.250;2024-03-08T04:59:04;29.57;;;12.83;;
23506;SDS011;11930;53.076;18.250;2024-03-08T05:01:33;26.93;;;11.97;;
23506;SDS011;11930;53.076;18.250;2024-03-08T05:04:03;39.17;;;12.60;;
23506;SDS011;11930;53.076;18.250;2024-03-08T05:06:31;29.03;;;12.43;;
23506;SDS011;11930;53.076;18.250;2024-03-08T05:08:57;30.83;;;12.93;;
23506;SDS011;11930;53.076;18.250;2024-03-08T05:11:23;31.97;;;12.73;;
23506;SDS011;11930;53.076;18.250;2024-03-08T05:13:49;29.57;;;12.47;;
23506;SDS011;11930;53.076;18.250;2024-03-08T05:16:15;30.13;;;12.33;;
23506;SDS011;11930;53.076;18.250;2024-03-08T05:18:42;30.50;;;13.13;;
23506;SDS011;11930;53.076;18.250;2024-03-08T05:21:08;34.23;;;13.37;;
23506;SDS011;11930;53.076;18.250;2024-03-08T05:23:34;36.03;;;13.97;;
23506;SDS011;11930;53.076;18.250;2024-03-08T05:26:01;35.07;;;14.53;;
23506;SDS011;11930;53.076;18.250;2024-03-08T05:28:27;35.13;;;13.80;;
23506;SDS011;11930;53.076;18.250;2024-03-08T05:30:53;36.33;;;13.77;;
23506;SDS011;11930;53.076;18.250;2024-03-08T05:33:22;39.87;;;15.80;;
23506;SDS011;11930;53.076;18.250;2024-03-08T05:35:49;40.53;;;15.87;;
23506;SDS011;11930;53.076;18.250;2024-03-08T05:38:15;48.30;;;17.13;;
23506;SDS011;11930;53.076;18.250;2024-03-08T05:40:41;50.50;;;18.27;;
23506;SDS011;11930;53.076;18.250;2024-03-08T05:43:08;51.53;;;20.20;;
23506;SDS011;11930;53.076;18.250;2024-03-08T05:45:35;55.20;;;22.23;;
23506;SDS011;11930;53.076;18.250;2024-03-08T05:48:01;53.50;;;21.87;;
23506;SDS011;11930;53.076;18.250;2024-03-08T05:50:27;60.63;;;22.00;;
23506;SDS011;11930;53.076;18.250;2024-03-08T05:52:53;57.57;;;21.93;;
23506;SDS011;11930;53.076;18.250;2024-03-08T05:55:19;62.43;;;25.17;;
23506;SDS011;11930;53.076;18.250;2024-03-08T05:57:46;66.93;;;25.00;;
23506;SDS011;11930;53.076;18.250;2024-03-08T06:00:14;75.17;;;25.73;;
23506;SDS011;11930;53.076;18.250;2024-03-08T06:02:41;69.50;;;25.87;;
23506;SDS011;11930;53.076;18.250;2024-03-08T06:05:08;77.60;;;27.47;;
23506;SDS011;11930;53.076;18.250;2024-03-08T06:07:36;78.30;;;26.47;;
23506;SDS011;11930;53.076;18.250;2024-03-08T06:10:09;74.00;;;27.20;;
23506;SDS011;11930;53.076;18.250;2024-03-08T06:12:36;63.97;;;23.93;;
23506;SDS011;11930;53.076;18.250;2024-03-08T06:15:07;65.80;;;23.93;;
23506;SDS011;11930;53.076;18.250;2024-03-08T06:17:34;65.00;;;23.27;;
23506;SDS011;11930;53.076;18.250;2024-03-08T06:20:01;58.17;;;23.40;;
23506;SDS011;11930;53.076;18.250;2024-03-08T06:22:29;65.03;;;24.90;;
23506;SDS011;11930;53.076;18.250;2024-03-08T06:24:56;61.10;;;23.73;;
23506;SDS011;11930;53.076;18.250;2024-03-08T06:27:22;61.47;;;23.50;;
23506;SDS011;11930;53.076;18.250;2024-03-08T06:29:48;65.20;;;25.50;;
23506;SDS011;11930;53.076;18.250;2024-03-08T06:32:14;62.17;;;23.50;;
23506;SDS011;11930;53.076;18.250;2024-03-08T06:34:44;54.37;;;22.63;;
23506;SDS011;11930;53.076;18.250;2024-03-08T06:37:10;52.07;;;21.83;;
23506;SDS011;11930;53.076;18.250;2024-03-08T06:39:36;51.30;;;21.03;;
23506;SDS011;11930;53.076;18.250;2024-03-08T06:42:03;51.37;;;21.73;;
23506;SDS011;11930;53.076;18.250;2024-03-08T06:44:30;52.30;;;21.13;;
23506;SDS011;11930;53.076;18.250;2024-03-08T06:46:56;46.73;;;20.67;;
23506;SDS011;11930;53.076;18.250;2024-03-08T06:49:24;53.23;;;19.73;;
23506;SDS011;11930;53.076;18.250;2024-03-08T06:51:52;51.93;;;20.97;;
23506;SDS011;11930;53.076;18.250;2024-03-08T06:54:18;52.53;;;20.70;;
23506;SDS011;11930;53.076;18.250;2024-03-08T06:56:44;50.63;;;21.40;;
23506;SDS011;11930;53.076;18.250;2024-03-08T06:59:11;66.20;;;22.90;;
23506;SDS011;11930;53.076;18.250;2024-03-08T07:01:37;58.53;;;22.63;;
23506;SDS011;11930;53.076;18.250;2024-03-08T07:04:03;56.43;;;21.00;;
23506;SDS011;11930;53.076;18.250;2024-03-08T07:06:31;59.63;;;23.67;;
23506;SDS011;11930;53.076;18.250;2024-03-08T07:08:58;58.80;;;24.30;;
23506;SDS011;11930;53.076;18.250;2024-03-08T07:11:25;61.47;;;23.70;;
23506;SDS011;11930;53.076;18.250;2024-03-08T07:13:51;64.07;;;25.23;;
23506;SDS011;11930;53.076;18.250;2024-03-08T07:16:17;64.30;;;25.20;;
23506;SDS011;11930;53.076;18.250;2024-03-08T07:18:43;56.40;;;24.40;;
23506;SDS011;11930;53.076;18.250;2024-03-08T07:21:10;65.67;;;24.57;;
23506;SDS011;11930;53.076;18.250;2024-03-08T07:23:36;55.67;;;23.63;;
23506;SDS011;11930;53.076;18.250;2024-03-08T07:26:21;61.43;;;27.07;;
23506;SDS011;11930;53.076;18.250;2024-03-08T07:28:47;71.70;;;28.30;;
23506;SDS011;11930;53.076;18.250;2024-03-08T07:31:13;71.47;;;27.37;;
23506;SDS011;11930;53.076;18.250;2024-03-08T07:33:49;58.97;;;25.40;;
23506;SDS011;11930;53.076;18.250;2024-03-08T07:36:16;54.93;;;24.07;;
23506;SDS011;11930;53.076;18.250;2024-03-08T07:38:42;52.00;;;22.90;;
23506;SDS011;11930;53.076;18.250;2024-03-08T07:41:09;50.93;;;23.63;;
23506;SDS011;11930;53.076;18.250;2024-03-08T07:43:35;50.53;;;23.23;;
23506;SDS011;11930;53.076;18.250;2024-03-08T07:46:02;45.10;;;22.03;;
23506;SDS011;11930;53.076;18.250;2024-03-08T07:48:28;44.37;;;21.40;;
23506;SDS011;11930;53.076;18.250;2024-03-08T07:50:56;37.07;;;19.47;;
23506;SDS011;11930;53.076;18.250;2024-03-08T07:53:22;39.50;;;20.07;;
23506;SDS011;11930;53.076;18.250;2024-03-08T07:55:50;41.07;;;21.30;;
23506;SDS011;11930;53.076;18.250;2024-03-08T07:58:16;38.07;;;20.43;;
23506;SDS011;11930;53.076;18.250;2024-03-08T08:00:43;39.93;;;21.63;;
23506;SDS011;11930;53.076;18.250;2024-03-08T08:03:09;38.03;;;19.10;;
23506;SDS011;11930;53.076;18.250;2024-03-08T08:05:36;37.63;;;19.90;;
23506;SDS011;11930;53.076;18.250;2024-03-08T08:08:04;35.73;;;19.50;;
23506;SDS011;11930;53.076;18.250;2024-03-08T08:10:32;36.17;;;20.30;;
23506;SDS011;11930;53.076;18.250;2024-03-08T08:12:58;41.07;;;20.43;;
23506;SDS011;11930;53.076;18.250;2024-03-08T08:15:25;39.20;;;20.70;;
23506;SDS011;11930;53.076;18.250;2024-03-08T08:17:51;36.87;;;19.60;;
23506;SDS011;11930;53.076;18.250;2024-03-08T08:20:17;35.83;;;20.47;;
23506;SDS011;11930;53.076;18.250;2024-03-08T08:22:44;36.33;;;19.87;;
23506;SDS011;11930;53.076;18.250;2024-03-08T08:25:10;34.53;;;19.87;;
23506;SDS011;11930;53.076;18.250;2024-03-08T08:27:45;35.70;;;21.37;;
23506;SDS011;11930;53.076;18.250;2024-03-08T08:30:12;37.67;;;21.03;;
23506;SDS011;11930;53.076;18.250;2024-03-08T08:32:39;48.70;;;25.10;;
23506;SDS011;11930;53.076;18.250;2024-03-08T08:35:08;41.83;;;24.70;;
23506;SDS011;11930;53.076;18.250;2024-03-08T08:37:35;42.57;;;24.13;;
23506;SDS011;11930;53.076;18.250;2024-03-08T08:40:05;37.80;;;21.63;;
23506;SDS011;11930;53.076;18.250;2024-03-08T08:42:34;37.27;;;21.53;;
23506;SDS011;11930;53.076;18.250;2024-03-08T08:45:01;39.63;;;23.00;;
23506;SDS011;11930;53.076;18.250;2024-03-08T08:47:28;40.87;;;23.67;;
23506;SDS011;11930;53.076;18.250;2024-03-08T08:49:54;37.90;;;21.57;;
23506;SDS011;11930;53.076;18.250;2024-03-08T08:52:20;36.40;;;21.00;;
23506;SDS011;11930;53.076;18.250;2024-03-08T08:54:46;35.70;;;21.10;;
23506;SDS011;11930;53.076;18.250;2024-03-08T08:57:15;41.23;;;23.83;;
23506;SDS011;11930;53.076;18.250;2024-03-08T08:59:41;35.90;;;21.63;;
23506;SDS011;11930;53.076;18.250;2024-03-08T09:02:07;36.90;;;21.03;;
23506;SDS011;11930;53.076;18.250;2024-03-08T09:04:36;38.87;;;22.83;;
23506;SDS011;11930;53.076;18.250;2024-03-08T09:07:03;40.00;;;22.37;;
23506;SDS011;11930;53.076;18.250;2024-03-08T09:09:32;36.17;;;22.20;;
23506;SDS011;11930;53.076;18.250;2024-03-08T09:11:58;33.73;;;21.07;;
23506;SDS011;11930;53.076;18.250;2024-03-08T09:14:24;38.27;;;22.50;;
23506;SDS011;11930;53.076;18.250;2024-03-08T09:16:51;37.60;;;21.90;;
23506;SDS011;11930;53.076;18.250;2024-03-08T09:19:18;38.63;;;21.53;;
23506;SDS011;11930;53.076;18.250;2024-03-08T09:21:45;38.10;;;21.60;;
23506;SDS011;11930;53.076;18.250;2024-03-08T09:24:11;35.53;;;20.17;;
23506;SDS011;11930;53.076;18.250;2024-03-08T09:26:38;36.60;;;20.77;;
23506;SDS011;11930;53.076;18.250;2024-03-08T09:29:06;34.38;;;20.48;;
23506;SDS011;11930;53.076;18.250;2024-03-08T09:31:32;37.00;;;21.93;;
23506;SDS011;11930;53.076;18.250;2024-03-08T09:33:59;35.05;;;20.23;;
23506;SDS011;11930;53.076;18.250;2024-03-08T09:36:25;39.23;;;20.77;;
23506;SDS011;11930;53.076;18.250;2024-03-08T09:38:51;35.30;;;19.85;;
23506;SDS011;11930;53.076;18.250;2024-03-08T09:41:18;34.33;;;18.80;;
23506;SDS011;11930;53.076;18.250;2024-03-08T09:43:45;33.30;;;19.20;;
23506;SDS011;11930;53.076;18.250;2024-03-08T09:46:11;31.02;;;19.42;;
23506;SDS011;11930;53.076;18.250;2024-03-08T09:48:39;33.22;;;19.08;;
23506;SDS011;11930;53.076;18.250;2024-03-08T09:51:07;31.05;;;17.77;;
23506;SDS011;11930;53.076;18.250;2024-03-08T09:53:33;31.42;;;18.77;;
23506;SDS011;11930;53.076;18.250;2024-03-08T09:56:00;30.67;;;17.87;;
23506;SDS011;11930;53.076;18.250;2024-03-08T09:58:29;28.75;;;17.42;;
23506;SDS011;11930;53.076;18.250;2024-03-08T10:00:58;29.03;;;17.80;;
23506;SDS011;11930;53.076;18.250;2024-03-08T10:03:28;28.13;;;16.30;;
23506;SDS011;11930;53.076;18.250;2024-03-08T10:05:56;28.67;;;15.68;;
23506;SDS011;11930;53.076;18.250;2024-03-08T10:08:29;24.60;;;14.53;;
23506;SDS011;11930;53.076;18.250;2024-03-08T10:10:55;24.33;;;14.70;;
23506;SDS011;11930;53.076;18.250;2024-03-08T10:13:26;30.35;;;15.45;;
23506;SDS011;11930;53.076;18.250;2024-03-08T10:15:53;29.20;;;15.53;;
23506;SDS011;11930;53.076;18.250;2024-03-08T10:18:20;26.47;;;14.63;;
23506;SDS011;11930;53.076;18.250;2024-03-08T10:20:53;28.47;;;14.83;;
23506;SDS011;11930;53.076;18.250;2024-03-08T10:23:31;23.83;;;13.53;;
23506;SDS011;11930;53.076;18.250;2024-03-08T10:28:50;22.43;;;12.50;;
23506;SDS011;11930;53.076;18.250;2024-03-08T10:31:18;21.90;;;12.00;;
23506;SDS011;11930;53.076;18.250;2024-03-08T10:33:46;22.63;;;12.53;;
23506;SDS011;11930;53.076;18.250;2024-03-08T10:36:13;18.60;;;10.90;;
23506;SDS011;11930;53.076;18.250;2024-03-08T10:38:41;19.97;;;10.80;;
23506;SDS011;11930;53.076;18.250;2024-03-08T10:41:12;15.00;;;9.23;;
23506;SDS011;11930;53.076;18.250;2024-03-08T10:49:30;15.93;;;7.93;;
23506;SDS011;11930;53.076;18.250;2024-03-08T10:52:01;17.53;;;8.47;;
23506;SDS011;11930;53.076;18.250;2024-03-08T10:54:30;14.37;;;6.43;;
23506;SDS011;11930;53.076;18.250;2024-03-08T10:56:57;15.13;;;7.20;;
23506;SDS011;11930;53.076;18.250;2024-03-08T10:59:25;12.70;;;6.97;;
23506;SDS011;11930;53.076;18.250;2024-03-08T11:01:53;13.17;;;6.77;;
23506;SDS011;11930;53.076;18.250;2024-03-08T11:04:19;14.03;;;6.90;;
23506;SDS011;11930;53.076;18.250;2024-03-08T11:06:48;13.10;;;7.27;;
23506;SDS011;11930;53.076;18.250;2024-03-08T11:15:12;13.53;;;7.50;;
23506;SDS011;11930;53.076;18.250;2024-03-08T11:17:45;13.87;;;7.33;;
23506;SDS011;11930;53.076;18.250;2024-03-08T11:20:15;16.60;;;8.30;;
23506;SDS011;11930;53.076;18.250;2024-03-08T11:22:49;13.20;;;7.33;;
23506;SDS011;11930;53.076;18.250;2024-03-08T11:25:31;14.93;;;7.07;;
23506;SDS011;11930;53.076;18.250;2024-03-08T11:30:45;11.23;;;5.97;;
23506;SDS011;11930;53.076;18.250;2024-03-08T11:33:13;15.40;;;6.63;;
23506;SDS011;11930;53.076;18.250;2024-03-08T11:35:41;8.33;;;4.57;;
23506;SDS011;11930;53.076;18.250;2024-03-08T11:38:11;7.10;;;4.00;;
23506;SDS011;11930;53.076;18.250;2024-03-08T11:40:39;10.17;;;4.50;;
23506;SDS011;11930;53.076;18.250;2024-03-08T11:43:05;7.70;;;4.13;;
23506;SDS011;11930;53.076;18.250;2024-03-08T11:45:34;13.57;;;6.27;;
23506;SDS011;11930;53.076;18.250;2024-03-08T11:48:03;10.63;;;6.03;;
23506;SDS011;11930;53.076;18.250;2024-03-08T11:50:30;15.50;;;8.37;;
23506;SDS011;11930;53.076;18.250;2024-03-08T11:53:01;18.93;;;9.30;;
23506;SDS011;11930;53.076;18.250;2024-03-08T11:55:31;17.33;;;9.27;;
23506;SDS011;11930;53.076;18.250;2024-03-08T11:58:01;17.60;;;9.13;;
23506;SDS011;11930;53.076;18.250;2024-03-08T12:00:28;19.50;;;9.73;;
23506;SDS011;11930;53.076;18.250;2024-03-08T12:03:07;17.30;;;8.90;;
23506;SDS011;11930;53.076;18.250;2024-03-08T12:05:37;18.77;;;9.20;;
23506;SDS011;11930;53.076;18.250;2024-03-08T12:08:04;18.10;;;8.33;;
23506;SDS011;11930;53.076;18.250;2024-03-08T12:10:33;22.40;;;9.63;;
23506;SDS011;11930;53.076;18.250;2024-03-08T12:13:00;14.50;;;8.60;;
23506;SDS011;11930;53.076;18.250;2024-03-08T12:15:28;15.27;;;8.57;;
23506;SDS011;11930;53.076;18.250;2024-03-08T12:17:58;16.73;;;8.60;;
23506;SDS011;11930;53.076;18.250;2024-03-08T12:20:26;14.40;;;7.97;;
23506;SDS011;11930;53.076;18.250;2024-03-08T12:22:57;12.70;;;7.43;;
23506;SDS011;11930;53.076;18.250;2024-03-08T12:25:29;15.23;;;7.87;;
23506;SDS011;11930;53.076;18.250;2024-03-08T12:28:06;18.27;;;8.83;;
23506;SDS011;11930;53.076;18.250;2024-03-08T12:30:37;15.93;;;7.93;;
23506;SDS011;11930;53.076;18.250;2024-03-08T12:33:13;16.30;;;8.17;;
23506;SDS011;11930;53.076;18.250;2024-03-08T12:35:40;21.37;;;8.77;;
23506;SDS011;11930;53.076;18.250;2024-03-08T12:38:07;15.07;;;7.30;;
23506;SDS011;11930;53.076;18.250;2024-03-08T12:40:34;14.27;;;7.13;;
23506;SDS011;11930;53.076;18.250;2024-03-08T12:43:02;16.63;;;7.33;;
23506;SDS011;11930;53.076;18.250;2024-03-08T12:45:28;16.17;;;7.87;;
23506;SDS011;11930;53.076;18.250;2024-03-08T12:47:55;16.63;;;8.13;;
23506;SDS011;11930;53.076;18.250;2024-03-08T12:50:22;17.70;;;8.60;;
23506;SDS011;11930;53.076;18.250;2024-03-08T12:52:50;20.20;;;9.03;;
23506;SDS011;11930;53.076;18.250;2024-03-08T12:55:18;17.50;;;8.87;;
23506;SDS011;11930;53.076;18.250;2024-03-08T12:57:44;17.93;;;9.37;;
23506;SDS011;11930;53.076;18.250;2024-03-08T13:00:12;17.93;;;8.27;;
23506;SDS011;11930;53.076;18.250;2024-03-08T13:02:45;15.83;;;8.10;;
23506;SDS011;11930;53.076;18.250;2024-03-08T13:05:12;18.53;;;9.37;;
23506;SDS011;11930;53.076;18.250;2024-03-08T13:07:42;16.57;;;8.13;;
23506;SDS011;11930;53.076;18.250;2024-03-08T13:10:12;15.50;;;8.37;;
23506;SDS011;11930;53.076;18.250;2024-03-08T13:12:42;18.50;;;8.60;;
23506;SDS011;11930;53.076;18.250;2024-03-08T13:15:09;19.33;;;9.60;;
23506;SDS011;11930;53.076;18.250;2024-03-08T13:17:46;17.37;;;9.10;;
23506;SDS011;11930;53.076;18.250;2024-03-08T13:20:14;19.97;;;9.83;;
23506;SDS011;11930;53.076;18.250;2024-03-08T13:22:45;18.27;;;10.03;;
23506;SDS011;11930;53.076;18.250;2024-03-08T13:25:15;18.73;;;9.87;;
23506;SDS011;11930;53.076;18.250;2024-03-08T13:27:41;20.37;;;9.63;;
23506;SDS011;11930;53.076;18.250;2024-03-08T13:30:11;21.40;;;10.50;;
23506;SDS011;11930;53.076;18.250;2024-03-08T13:32:39;22.33;;;10.10;;
23506;SDS011;11930;53.076;18.250;2024-03-08T13:35:08;20.53;;;11.13;;
23506;SDS011;11930;53.076;18.250;2024-03-08T13:37:41;20.03;;;9.80;;
23506;SDS011;11930;53.076;18.250;2024-03-08T13:40:08;18.13;;;10.27;;
23506;SDS011;11930;53.076;18.250;2024-03-08T13:42:37;21.57;;;10.73;;
23506;SDS011;11930;53.076;18.250;2024-03-08T13:45:04;22.43;;;9.90;;
23506;SDS011;11930;53.076;18.250;2024-03-08T13:47:32;20.10;;;10.53;;
23506;SDS011;11930;53.076;18.250;2024-03-08T13:49:59;17.87;;;9.77;;
23506;SDS011;11930;53.076;18.250;2024-03-08T13:52:26;18.13;;;10.03;;
23506;SDS011;11930;53.076;18.250;2024-03-08T13:54:55;18.83;;;10.50;;
23506;SDS011;11930;53.076;18.250;2024-03-08T13:57:21;21.53;;;10.50;;
23506;SDS011;11930;53.076;18.250;2024-03-08T13:59:50;20.97;;;10.20;;
23506;SDS011;11930;53.076;18.250;2024-03-08T14:02:17;18.47;;;9.33;;
23506;SDS011;11930;53.076;18.250;2024-03-08T14:04:43;18.07;;;9.90;;
23506;SDS011;11930;53.076;18.250;2024-03-08T14:07:09;19.40;;;10.33;;
23506;SDS011;11930;53.076;18.250;2024-03-08T14:09:36;21.73;;;10.77;;
23506;SDS011;11930;53.076;18.250;2024-03-08T14:12:08;20.40;;;10.63;;
23506;SDS011;11930;53.076;18.250;2024-03-08T14:14:35;17.90;;;9.40;;
23506;SDS011;11930;53.076;18.250;2024-03-08T14:17:01;17.87;;;9.37;;
23506;SDS011;11930;53.076;18.250;2024-03-08T14:19:29;20.60;;;10.17;;
23506;SDS011;11930;53.076;18.250;2024-03-08T14:21:59;22.47;;;10.63;;
23506;SDS011;11930;53.076;18.250;2024-03-08T14:24:25;17.83;;;9.30;;
23506;SDS011;11930;53.076;18.250;2024-03-08T14:26:52;19.07;;;9.93;;
23506;SDS011;11930;53.076;18.250;2024-03-08T14:29:18;18.30;;;10.10;;
23506;SDS011;11930;53.076;18.250;2024-03-08T14:31:44;18.90;;;10.40;;